createdAt,value
2019-04-05T00:01:23.928Z,96982.25
2019-04-05T00:03:55.514Z,96985.92
2019-04-05T00:06:28.180Z,96987.11
2019-04-05T00:08:59.764Z,96989.59
2019-04-05T00:11:31.349Z,96984.03
2019-04-05T00:14:02.924Z,96981.92
2019-04-05T00:16:36.125Z,96977.43
2019-04-05T00:19:07.720Z,96975.77
2019-04-05T00:21:39.329Z,96971.17
2019-04-05T00:24:10.918Z,96972.84
2019-04-05T00:26:42.516Z,96965.75
2019-04-05T00:29:14.161Z,96964.45
2019-04-05T00:31:45.766Z,96963.28
2019-04-05T00:34:18.430Z,96959.86
2019-04-05T00:36:51.100Z,96958.20
2019-04-05T00:39:23.734Z,96961.95
2019-04-05T00:41:55.340Z,96964.55
2019-04-05T00:44:26.943Z,96968.81
2019-04-05T00:46:58.572Z,96968.11
2019-04-05T00:49:30.220Z,96973.63
2019-04-05T00:52:02.859Z,96973.30
2019-04-05T00:54:34.499Z,96966.44
2019-04-05T00:57:06.093Z,96972.00
2019-04-05T00:59:37.662Z,96974.22
2019-04-05T01:02:09.290Z,96973.30
2019-04-05T01:04:41.924Z,96964.08
2019-04-05T01:07:13.561Z,96960.66
2019-04-05T01:09:46.261Z,96969.52
2019-04-05T01:12:18.452Z,96966.33
2019-04-05T01:14:50.193Z,96964.09
2019-04-05T01:17:25.196Z,96966.70
2019-04-05T01:19:59.639Z,96962.55
2019-04-05T01:22:33.041Z,96967.25
2019-04-05T01:25:05.866Z,96962.55
2019-04-05T01:27:40.032Z,96959.81
2019-04-05T01:30:14.403Z,96960.30
2019-04-05T01:32:45.980Z,96960.05
2019-04-05T01:35:17.556Z,96958.05
2019-04-05T01:37:49.447Z,96952.27
2019-04-05T01:40:21.017Z,96962.16
2019-04-05T01:42:52.686Z,96958.97
2019-04-05T01:45:24.259Z,96959.82
2019-04-05T01:47:55.873Z,96964.90
2019-04-05T01:50:27.448Z,96958.41
2019-04-05T01:52:59.114Z,96963.71
2019-04-05T01:55:30.714Z,96974.20
2019-04-05T01:58:02.308Z,96981.61
2019-04-05T02:00:35.086Z,96986.20
2019-04-05T02:03:07.739Z,96999.55
2019-04-05T02:05:39.325Z,97004.14
2019-04-05T02:08:11.014Z,97004.14
2019-04-05T02:10:42.643Z,97012.29
2019-04-05T02:13:14.245Z,97005.58
2019-04-05T02:15:45.872Z,97007.25
2019-04-05T02:18:17.430Z,96998.61
2019-04-05T02:20:49.253Z,96998.84
2019-04-05T02:23:20.852Z,96985.77
2019-04-05T02:25:52.429Z,96989.39
2019-04-05T02:28:25.466Z,96987.50
2019-04-05T02:30:57.265Z,96989.77
2019-04-05T02:33:28.875Z,96988.47
2019-04-05T02:36:00.459Z,96980.31
2019-04-05T02:38:32.021Z,96981.76
2019-04-05T02:41:04.424Z,96984.69
2019-04-05T02:43:38.184Z,96981.02
2019-04-05T02:46:23.577Z,96972.91
2019-04-05T02:48:45.970Z,96976.28
2019-04-05T02:51:22.308Z,96977.95
2019-04-05T02:53:55.123Z,96978.77
2019-04-05T02:56:28.928Z,96986.77
2019-04-05T02:59:01.270Z,96992.78
2019-04-05T03:01:35.521Z,96997.84
2019-04-05T03:04:07.098Z,96997.84
2019-04-05T03:06:38.931Z,96992.89
2019-04-05T03:09:10.791Z,96995.92
2019-04-05T03:11:43.990Z,96994.62
2019-04-05T03:14:16.476Z,96996.15
2019-04-05T03:16:51.788Z,96996.04
2019-04-05T03:19:29.344Z,97000.89
2019-04-05T03:22:08.410Z,96999.81
2019-04-05T03:24:43.048Z,97006.78
2019-04-05T03:27:24.910Z,97016.11
2019-04-05T03:29:57.387Z,97016.22
2019-04-05T03:32:29.092Z,97014.48
2019-04-05T03:35:00.960Z,97014.00
2019-04-05T03:37:32.709Z,97008.11
2019-04-05T03:40:04.916Z,97007.63
2019-04-05T03:42:37.267Z,97000.66
2019-04-05T03:45:10.169Z,97003.15
2019-04-05T03:47:41.822Z,96999.03
2019-04-05T03:50:13.698Z,96994.55
2019-04-05T03:52:45.644Z,96998.22
2019-04-05T03:55:18.923Z,96996.81
2019-04-05T03:57:51.076Z,96994.81
2019-04-05T04:00:22.850Z,97002.48
2019-04-05T04:02:54.626Z,96999.06
2019-04-05T04:05:26.260Z,96997.87
2019-04-05T04:07:58.511Z,97003.77
2019-04-05T04:10:30.569Z,97009.07
2019-04-05T04:13:02.225Z,97005.30
2019-04-05T04:15:35.263Z,97005.03
2019-04-05T04:18:07.355Z,97002.59
2019-04-05T04:20:48.793Z,97000.66
2019-04-05T04:23:22.542Z,97008.11
2019-04-05T04:25:55.294Z,97003.97
2019-04-05T04:28:28.310Z,97009.62
2019-04-05T04:30:59.891Z,97017.41
2019-04-05T04:33:31.885Z,97018.11
2019-04-05T04:36:05.234Z,97013.85
2019-04-05T04:38:37.400Z,97013.52
2019-04-05T04:41:09.350Z,97013.63
2019-04-05T04:43:41.451Z,97012.22
2019-04-05T04:46:13.643Z,97013.52
2019-04-05T04:48:48.383Z,97011.70
2019-04-05T04:51:20.717Z,97014.30
2019-04-05T04:53:52.672Z,97019.74
2019-04-05T04:56:24.800Z,97023.85
2019-04-05T04:58:56.483Z,97019.15
2019-04-05T05:01:28.059Z,97025.41
2019-04-05T05:03:59.853Z,97028.67
2019-04-05T05:06:31.674Z,97023.38
2019-04-05T05:09:04.967Z,97027.16
2019-04-05T05:11:36.955Z,97030.38
2019-04-05T05:14:08.520Z,97027.30
2019-04-05T05:16:40.129Z,97033.45
2019-04-05T05:19:11.915Z,97027.23
2019-04-05T05:21:44.869Z,97026.75
2019-04-05T05:24:16.724Z,97024.38
2019-04-05T05:26:48.519Z,97019.56
2019-04-05T05:29:20.706Z,97016.85
2019-04-05T05:31:52.289Z,97020.30
2019-04-05T05:34:24.073Z,97023.03
2019-04-05T05:36:56.761Z,97021.25
2019-04-05T05:39:28.553Z,97019.73
2019-04-05T05:42:00.458Z,97019.98
2019-04-05T05:44:32.139Z,97018.33
2019-04-05T05:47:03.759Z,97022.55
2019-04-05T05:49:35.383Z,97021.52
2019-04-05T05:52:06.975Z,97022.10
2019-04-05T05:54:38.633Z,97025.52
2019-04-05T05:57:10.226Z,97022.58
2019-04-05T05:59:41.843Z,97022.84
2019-04-05T06:02:13.449Z,97017.79
2019-04-05T06:04:45.084Z,97025.91
2019-04-05T06:07:16.768Z,97028.27
2019-04-05T06:09:48.374Z,97027.23
2019-04-05T06:12:19.941Z,97025.82
2019-04-05T06:14:51.551Z,97022.63
2019-04-05T06:17:23.114Z,97018.03
2019-04-05T06:19:55.808Z,97014.76
2019-04-05T06:22:27.355Z,97009.78
2019-04-05T06:24:59.116Z,97005.91
2019-04-05T06:27:30.718Z,97014.06
2019-04-05T06:30:02.290Z,97003.19
2019-04-05T06:32:33.885Z,97004.70
2019-04-05T06:35:05.832Z,97006.51
2019-04-05T06:37:37.391Z,97002.16
2019-04-05T06:40:09.259Z,97004.63
2019-04-05T06:42:40.857Z,97010.06
2019-04-05T06:45:12.438Z,97011.98
2019-04-05T06:47:43.992Z,97011.53
2019-04-05T06:50:15.649Z,97007.73
2019-04-05T06:52:47.235Z,97007.87
2019-04-05T06:55:18.816Z,97007.16
2019-04-05T06:57:50.391Z,97016.48
2019-04-05T07:00:29.637Z,97014.59
2019-04-05T07:03:01.617Z,97026.28
2019-04-05T07:05:33.241Z,97020.38
2019-04-05T07:08:04.832Z,97016.38
2019-04-05T07:10:36.421Z,97018.85
2019-04-05T07:13:08.104Z,97014.36
2019-04-05T07:15:39.969Z,97010.09
2019-04-05T07:18:11.537Z,97011.28
2019-04-05T07:20:46.087Z,97022.73
2019-04-05T07:23:17.674Z,97016.59
2019-04-05T07:25:49.248Z,97021.78
2019-04-05T07:28:20.812Z,97018.38
2019-04-05T07:30:52.470Z,97015.91
2019-04-05T07:33:24.027Z,97010.34
2019-04-05T07:35:55.587Z,97007.63
2019-04-05T07:38:27.233Z,97011.99
2019-04-05T07:40:58.806Z,97008.45
2019-04-05T07:43:30.413Z,97016.61
2019-04-05T07:46:01.993Z,97019.56
2019-04-05T07:48:44.034Z,97015.79
2019-04-05T07:51:07.959Z,97018.84
2019-04-05T07:53:39.522Z,97014.95
2019-04-05T07:56:12.899Z,97012.11
2019-04-05T07:58:44.468Z,97017.88
2019-04-05T08:01:16.266Z,97023.45
2019-04-05T08:03:47.917Z,97026.51
2019-04-05T08:06:19.552Z,97027.45
2019-04-05T08:09:09.834Z,97025.34
2019-04-05T08:11:44.234Z,97031.48
2019-04-05T08:14:18.210Z,97032.53
2019-04-05T08:16:49.958Z,97035.35
2019-04-05T08:19:21.621Z,97028.61
2019-04-05T08:21:53.222Z,97039.62
2019-04-05T08:24:24.857Z,97035.36
2019-04-05T08:26:57.419Z,97035.47
2019-04-05T08:29:30.330Z,97036.77
2019-04-05T08:32:13.910Z,97042.09
2019-04-05T08:34:35.233Z,97044.70
2019-04-05T08:37:06.875Z,97040.55
2019-04-05T08:39:38.497Z,97045.88
2019-04-05T08:42:10.969Z,97049.29
2019-04-05T08:44:42.762Z,97053.42
2019-04-05T08:47:14.352Z,97059.69
2019-04-05T08:49:45.953Z,97059.45
2019-04-05T08:52:17.585Z,97060.27
2019-04-05T08:54:49.139Z,97054.70
2019-04-05T08:57:20.703Z,97058.13
2019-04-05T08:59:54.066Z,97056.25
2019-04-05T09:02:25.749Z,97058.85
2019-04-05T09:04:57.329Z,97057.45
2019-04-05T09:07:29.094Z,97055.43
2019-04-05T09:10:02.264Z,97048.21
2019-04-05T09:12:33.878Z,97044.76
2019-04-05T09:15:05.786Z,97044.64
2019-04-05T09:17:37.391Z,97047.81
2019-04-05T09:20:09.475Z,97046.84
2019-04-05T09:22:41.024Z,97043.42
2019-04-05T09:25:12.616Z,97036.75
2019-04-05T09:27:44.231Z,97036.83
2019-04-05T09:30:16.506Z,97033.16
2019-04-05T09:32:48.058Z,97031.18
2019-04-05T09:35:19.703Z,97027.84
2019-04-05T09:37:51.290Z,97020.58
2019-04-05T09:40:22.917Z,97022.34
2019-04-05T09:42:54.470Z,97019.49
2019-04-05T09:45:26.110Z,97017.72
2019-04-05T09:47:57.752Z,97017.33
2019-04-05T09:50:29.344Z,97012.92
2019-04-05T09:53:00.930Z,97006.91
2019-04-05T09:55:32.701Z,97000.89
2019-04-05T09:58:04.699Z,96999.56
2019-04-05T10:00:37.273Z,96992.55
2019-04-05T10:03:11.693Z,96999.78
2019-04-05T10:05:43.289Z,96992.36
2019-04-05T10:08:15.940Z,96992.38
2019-04-05T10:10:47.605Z,96993.05
2019-04-05T10:13:19.235Z,96983.41
2019-04-05T10:15:50.811Z,96990.78
2019-04-05T10:18:22.412Z,96986.48
2019-04-05T10:20:54.004Z,96992.25
2019-04-05T10:23:25.632Z,96992.25
2019-04-05T10:25:57.241Z,96983.27
2019-04-05T10:28:28.911Z,96988.80
2019-04-05T10:31:00.515Z,96981.44
2019-04-05T10:33:32.139Z,96977.60
2019-04-05T10:36:03.785Z,96976.69
2019-04-05T10:38:35.388Z,96979.75
2019-04-05T10:41:07.002Z,96971.19
2019-04-05T10:43:38.576Z,96976.49
2019-04-05T10:46:10.364Z,96972.72
2019-04-05T10:48:41.974Z,96960.85
2019-04-05T10:51:13.633Z,96968.55
2019-04-05T10:53:45.229Z,96970.50
2019-04-05T10:56:16.914Z,96966.00
2019-04-05T10:58:48.512Z,96974.97
2019-04-05T11:01:20.099Z,96976.49
2019-04-05T11:03:51.717Z,96973.11
2019-04-05T11:06:23.341Z,96973.11
2019-04-05T11:08:54.989Z,96970.92
2019-04-05T11:11:26.635Z,96963.10
2019-04-05T11:13:58.224Z,96967.54
2019-04-05T11:16:29.813Z,96968.58
2019-04-05T11:19:02.258Z,96964.05
2019-04-05T11:21:34.298Z,96963.33
2019-04-05T11:24:05.916Z,96953.06
2019-04-05T11:26:37.562Z,96960.42
2019-04-05T11:29:09.158Z,96961.05
2019-04-05T11:31:40.851Z,96959.70
2019-04-05T11:34:12.477Z,96953.19
2019-04-05T11:36:44.663Z,96950.09
2019-04-05T11:39:16.370Z,96955.44
2019-04-05T11:41:50.967Z,96954.20
2019-04-05T11:44:23.761Z,96949.19
2019-04-05T11:46:56.958Z,96945.23
2019-04-05T11:49:31.359Z,96938.05
2019-04-05T11:52:02.986Z,96947.20
2019-04-05T11:54:34.565Z,96948.35
2019-04-05T11:57:06.197Z,96947.45
2019-04-05T11:59:37.784Z,96948.03
2019-04-05T12:02:32.468Z,96943.70
2019-04-05T12:05:04.325Z,96939.64
2019-04-05T12:07:35.931Z,96936.78
2019-04-05T12:10:08.726Z,96938.70
2019-04-05T12:12:40.354Z,96938.34
2019-04-05T12:15:12.190Z,96937.92
2019-04-05T12:17:43.783Z,96932.70
2019-04-05T12:20:17.134Z,96939.63
2019-04-05T12:22:52.355Z,96936.44
2019-04-05T12:25:23.152Z,96931.69
2019-04-05T12:28:05.767Z,96933.69
2019-04-05T12:30:28.328Z,96942.81
2019-04-05T12:33:12.658Z,96946.06
2019-04-05T12:35:33.299Z,96943.69
2019-04-05T12:38:07.001Z,96936.81
2019-04-05T12:40:40.314Z,96931.95
2019-04-05T12:43:13.581Z,96931.47
2019-04-05T12:45:45.308Z,96928.06
2019-04-05T12:48:16.908Z,96933.80
2019-04-05T12:51:00.489Z,96926.56
2019-04-05T12:53:21.870Z,96924.81
2019-04-05T12:55:56.147Z,96921.43
2019-04-05T12:58:26.888Z,96918.83
2019-04-05T13:00:58.546Z,96921.28
2019-04-05T13:03:30.181Z,96917.88
2019-04-05T13:06:01.800Z,96921.79
2019-04-05T13:08:33.411Z,96907.84
2019-04-05T13:11:05.019Z,96906.64
2019-04-05T13:13:36.639Z,96899.80
2019-04-05T13:16:10.768Z,96904.43
2019-04-05T13:18:41.670Z,96898.31
2019-04-05T13:21:15.406Z,96899.33
2019-04-05T13:23:46.581Z,96890.14
2019-04-05T13:26:18.229Z,96899.36
2019-04-05T13:28:49.907Z,96899.79
2019-04-05T13:31:21.653Z,96889.14
2019-04-05T13:33:55.185Z,96886.67
2019-04-05T13:36:26.579Z,96881.81
2019-04-05T13:39:00.383Z,96886.77
2019-04-05T13:41:32.303Z,96885.48
2019-04-05T13:44:04.106Z,96882.28
2019-04-05T13:46:38.287Z,96891.59
2019-04-05T13:49:10.567Z,96892.09
2019-04-05T13:51:42.829Z,96888.70
2019-04-05T13:54:14.608Z,96885.20
2019-04-05T13:56:46.306Z,96882.88
2019-04-05T13:59:17.901Z,96884.65
2019-04-05T14:01:51.479Z,96881.55
2019-04-05T14:04:23.185Z,96880.67
2019-04-05T14:06:54.789Z,96880.98
2019-04-05T14:09:26.477Z,96875.27
2019-04-05T14:11:58.085Z,96870.51
2019-04-05T14:14:29.823Z,96869.08
2019-04-05T14:17:01.475Z,96864.06
2019-04-05T14:19:33.112Z,96865.56
2019-04-05T14:22:08.888Z,96868.75
2019-04-05T14:24:38.421Z,96867.58
2019-04-05T14:27:10.032Z,96869.02
2019-04-05T14:29:41.754Z,96866.80
2019-04-05T14:32:20.871Z,96872.15
2019-04-05T14:34:46.870Z,96869.45
2019-04-05T14:37:21.360Z,96867.98
2019-04-05T14:39:51.761Z,96867.27
2019-04-05T14:42:23.389Z,96869.47
2019-04-05T14:44:55.013Z,96861.50
2019-04-05T14:47:28.250Z,96863.03
2019-04-05T14:50:00.987Z,96865.03
2019-04-05T14:52:32.745Z,96861.17
2019-04-05T14:55:04.836Z,96861.31
2019-04-05T14:57:37.017Z,96856.46
2019-04-05T15:00:09.699Z,96852.45
2019-04-05T15:02:43.776Z,96851.41
2019-04-05T15:05:15.551Z,96851.47
2019-04-05T15:07:50.813Z,96844.36
2019-04-05T15:10:21.024Z,96848.95
2019-04-05T15:12:52.728Z,96846.22
2019-04-05T15:15:24.345Z,96841.68
2019-04-05T15:17:56.065Z,96841.55
2019-04-05T15:20:27.718Z,96847.12
2019-04-05T15:22:59.381Z,96846.31
2019-04-05T15:25:31.036Z,96849.87
2019-04-05T15:28:02.642Z,96849.91
2019-04-05T15:30:34.276Z,96856.47
2019-04-05T15:33:06.041Z,96856.64
2019-04-05T15:35:37.648Z,96856.02
2019-04-05T15:38:09.347Z,96855.11
2019-04-05T15:40:41.030Z,96850.44
2019-04-05T15:43:12.627Z,96854.29
2019-04-05T15:45:44.268Z,96852.03
2019-04-05T15:48:15.907Z,96854.64
2019-04-05T15:50:49.404Z,96853.06
2019-04-05T15:53:20.811Z,96854.91
2019-04-05T15:55:52.504Z,96853.66
2019-04-05T15:58:24.114Z,96858.06
2019-04-05T16:00:55.713Z,96854.02
2019-04-05T16:03:27.424Z,96855.52
2019-04-05T16:05:59.002Z,96857.58
2019-04-05T16:08:31.323Z,96862.58
2019-04-05T16:11:02.936Z,96866.36
2019-04-05T16:13:35.725Z,96867.52
2019-04-05T16:16:07.383Z,96873.59
2019-04-05T16:18:40.830Z,96873.45
2019-04-05T16:21:13.475Z,96878.27
2019-04-05T16:23:45.293Z,96878.13
2019-04-05T16:26:16.916Z,96884.37
2019-04-05T16:28:48.629Z,96884.09
2019-04-05T16:31:20.340Z,96882.17
2019-04-05T16:33:52.034Z,96887.12
2019-04-05T16:36:23.735Z,96882.36
2019-04-05T16:38:55.468Z,96885.67
2019-04-05T16:41:28.914Z,96883.13
2019-04-05T16:44:00.634Z,96884.08
2019-04-05T16:46:32.354Z,96890.95
2019-04-05T16:49:03.999Z,96896.30
2019-04-05T16:51:35.729Z,96895.89
2019-04-05T16:54:08.607Z,96888.12
2019-04-05T16:56:40.207Z,96886.14
2019-04-05T16:59:11.951Z,96886.46
2019-04-05T17:01:43.620Z,96886.91
2019-04-05T17:04:15.233Z,96886.63
2019-04-05T17:06:46.932Z,96882.91
2019-04-05T17:09:18.632Z,96885.73
2019-04-05T17:11:50.316Z,96890.19
2019-04-05T17:14:23.316Z,96891.71
2019-04-05T17:16:55.077Z,96885.87
2019-04-05T17:19:26.794Z,96885.87
2019-04-05T17:22:00.249Z,96892.52
2019-04-05T17:24:31.873Z,96893.02
2019-04-05T17:27:03.705Z,96894.64
2019-04-05T17:29:36.440Z,96890.73
2019-04-05T17:32:08.056Z,96887.17
2019-04-05T17:34:39.926Z,96890.41
2019-04-05T17:37:11.582Z,96897.25
2019-04-05T17:39:43.233Z,96897.25
2019-04-05T17:42:14.875Z,96902.95
2019-04-05T17:44:46.549Z,96912.58
2019-04-05T17:47:18.207Z,96913.75
2019-04-05T17:49:49.809Z,96915.19
2019-04-05T17:52:21.457Z,96919.70
2019-04-05T17:54:54.136Z,96921.00
2019-04-05T17:57:25.779Z,96922.30
2019-04-05T17:59:57.628Z,96924.23
2019-04-05T18:02:29.308Z,96922.58
2019-04-05T18:05:00.962Z,96926.98
2019-04-05T18:07:32.708Z,96925.81
2019-04-05T18:10:04.432Z,96930.34
2019-04-05T18:12:36.206Z,96929.94
2019-04-05T18:15:07.804Z,96932.27
2019-04-05T18:17:39.433Z,96933.08
2019-04-05T18:20:11.088Z,96931.33
2019-04-05T18:22:42.762Z,96934.07
2019-04-05T18:25:14.507Z,96935.45
2019-04-05T18:27:46.195Z,96935.63
2019-04-05T18:30:18.977Z,96934.23
2019-04-05T18:32:50.651Z,96936.02
2019-04-05T18:35:22.352Z,96934.36
2019-04-05T18:37:53.960Z,96931.92
2019-04-05T18:40:25.558Z,96919.83
2019-04-05T18:42:57.350Z,96930.94
2019-04-05T18:45:29.038Z,96929.15
2019-04-05T18:48:00.654Z,96928.47
2019-04-05T18:50:32.306Z,96933.81
2019-04-05T18:53:03.973Z,96935.60
2019-04-05T18:55:35.911Z,96939.38
2019-04-05T18:58:07.584Z,96935.34
2019-04-05T19:00:40.198Z,96941.05
2019-04-05T19:03:11.865Z,96942.67
2019-04-05T19:05:43.515Z,96938.08
2019-04-05T19:08:15.370Z,96935.20
2019-04-05T19:10:47.073Z,96937.39
2019-04-05T19:13:18.663Z,96940.81
2019-04-05T19:15:50.298Z,96939.02
2019-04-05T19:18:22.959Z,96940.27
2019-04-05T19:20:54.584Z,96943.59
2019-04-05T19:23:26.208Z,96941.38
2019-04-05T19:25:57.853Z,96938.19
2019-04-05T19:28:29.511Z,96945.38
2019-04-05T19:48:54.489Z,96959.81
2019-04-05T19:51:26.102Z,96958.16
2019-04-05T19:54:01.469Z,96961.70
2019-04-05T19:56:31.074Z,96951.28
2019-04-05T19:59:02.669Z,96958.16
2019-04-05T20:01:34.320Z,96961.38
2019-04-05T20:04:05.965Z,96961.02
2019-04-05T20:06:37.603Z,96956.49
2019-04-05T20:09:09.478Z,96957.80
2019-04-05T20:11:41.152Z,96957.80
2019-04-05T20:14:12.777Z,96956.42
2019-04-05T20:16:44.450Z,96955.03
2019-04-05T20:19:16.063Z,96959.56
2019-04-05T20:21:47.686Z,96950.89
2019-04-05T20:24:19.310Z,96944.31
2019-04-05T20:26:51.014Z,96941.97
2019-04-05T20:29:22.621Z,96947.77
2019-04-05T20:31:54.222Z,96948.52
2019-04-05T20:34:25.843Z,96952.33
2019-04-05T20:36:57.452Z,96948.35
2019-04-05T20:39:29.058Z,96947.92
2019-04-05T20:42:00.689Z,96943.56
2019-04-05T20:44:32.311Z,96942.88
2019-04-05T20:47:03.932Z,96942.09
2019-04-05T20:49:35.585Z,96953.08
2019-04-05T20:52:08.346Z,96955.95
2019-04-05T20:54:39.982Z,96956.71
2019-04-05T20:57:11.620Z,96956.25
2019-04-05T20:59:43.274Z,96953.20
2019-04-05T21:02:14.885Z,96947.72
2019-04-05T21:04:47.475Z,96958.05
2019-04-05T21:07:19.091Z,96956.33
2019-04-05T21:09:50.680Z,96956.46
2019-04-05T21:12:22.365Z,96963.91
2019-04-05T21:14:53.948Z,96966.06
2019-04-05T21:17:25.565Z,96969.41
2019-04-05T21:19:57.239Z,96970.26
2019-04-05T21:22:28.858Z,96967.19
2019-04-05T21:25:00.432Z,96967.22
2019-04-05T21:27:33.121Z,96965.11
2019-04-05T21:30:05.235Z,96967.11
2019-04-05T21:32:36.898Z,96970.08
2019-04-05T21:35:08.509Z,96969.18
2019-04-05T21:37:40.134Z,96967.87
2019-04-05T21:40:12.144Z,96969.42
2019-04-05T21:42:43.750Z,96969.30
2019-04-05T21:45:15.346Z,96969.78
2019-04-05T21:47:46.927Z,96972.87
2019-04-05T21:50:18.589Z,96970.52
2019-04-05T21:52:50.201Z,96972.29
2019-04-05T21:55:22.259Z,96975.73
2019-04-05T21:57:53.845Z,96975.85
2019-04-05T22:00:31.083Z,96970.79
2019-04-05T22:03:06.078Z,96971.14
2019-04-05T22:05:37.809Z,96973.85
2019-04-05T22:08:09.389Z,96979.28
2019-04-05T22:10:41.030Z,96973.63
2019-04-05T22:13:12.602Z,96971.14
2019-04-05T22:15:44.194Z,96976.81
2019-04-05T22:18:15.779Z,96990.34
2019-04-05T22:20:47.443Z,96991.05
2019-04-05T22:23:19.051Z,96991.88
2019-04-05T22:25:50.649Z,96999.79
2019-04-05T22:28:22.252Z,97001.77
2019-04-05T22:30:53.900Z,97007.30
2019-04-05T22:33:25.548Z,97006.23
2019-04-05T22:35:57.206Z,96997.49
2019-04-05T22:38:28.895Z,96993.61
2019-04-05T22:41:00.478Z,96994.44
2019-04-05T22:43:32.088Z,96990.29
2019-04-05T22:46:03.665Z,96992.75
2019-04-05T22:48:35.244Z,96988.23
2019-04-05T22:51:06.841Z,96993.09
2019-04-05T22:53:38.449Z,96994.12
2019-04-05T22:56:10.050Z,96989.77
2019-04-05T22:58:41.631Z,96999.77
2019-04-05T23:01:13.276Z,96997.87
2019-04-05T23:03:44.835Z,97001.14
2019-04-05T23:06:16.426Z,96993.73
2019-04-05T23:08:49.058Z,97000.55
2019-04-05T23:11:21.712Z,97001.34
2019-04-05T23:13:53.291Z,97003.22
2019-04-05T23:16:24.878Z,97007.44
2019-04-05T23:18:56.431Z,97009.78
2019-04-05T23:21:28.036Z,97014.00
2019-04-05T23:23:59.659Z,97015.63
2019-04-05T23:26:31.269Z,97011.28
2019-04-05T23:29:02.932Z,97007.73
2019-04-05T23:31:34.538Z,97008.88
2019-04-05T23:34:06.181Z,97011.80
2019-04-05T23:36:37.792Z,97007.20
2019-04-05T23:39:09.426Z,97004.45
2019-04-05T23:41:41.010Z,97005.05
2019-04-05T23:44:12.581Z,96999.27
2019-04-05T23:46:44.172Z,97002.62
2019-04-05T23:49:15.776Z,97002.50
2019-04-05T23:51:47.372Z,96996.35
2019-04-05T23:54:18.973Z,97002.07
2019-04-05T23:56:50.617Z,97002.77
2019-04-05T23:59:22.206Z,97000.52
